createdAt,value
2018-10-03T00:00:25.961Z,3.26
2018-10-03T00:04:27.007Z,2.83
2018-10-03T00:10:27.762Z,4.4
2018-10-03T00:14:28.555Z,4.92
2018-10-03T00:20:29.293Z,3.47
2018-10-03T00:26:30.128Z,3.7
2018-10-03T00:30:31.092Z,3.46
2018-10-03T00:36:31.753Z,3.65
2018-10-03T00:40:32.547Z,3.44
2018-10-03T00:46:33.444Z,3.23
2018-10-03T00:52:34.288Z,3.62
2018-10-03T00:56:35.141Z,3.05
2018-10-03T01:02:36.078Z,3.15
2018-10-03T01:06:37.020Z,3.61
2018-10-03T01:08:37.903Z,3.36
2018-10-03T01:12:38.803Z,3.24
2018-10-03T01:18:39.802Z,3.96
2018-10-03T01:22:40.779Z,3.38
2018-10-03T01:28:41.777Z,5.53
2018-10-03T01:32:42.635Z,3.94
2018-10-03T01:38:43.733Z,4.4
2018-10-03T01:44:44.789Z,4.75
2018-10-03T01:48:45.606Z,4
2018-10-03T01:54:46.668Z,5.97
2018-10-03T01:58:47.479Z,4.86
2018-10-03T02:00:48.384Z,4.66
2018-10-03T02:04:49.295Z,5.04
2018-10-03T02:10:50.258Z,4.31
2018-10-03T02:14:51.370Z,3.78
2018-10-03T02:20:52.041Z,4.28
2018-10-03T02:24:52.961Z,4.6
2018-10-03T02:24:52.972Z,4.6
2018-10-03T02:30:53.907Z,4.79
2018-10-03T02:36:54.765Z,4.05
2018-10-03T02:40:55.707Z,4.05
2018-10-03T02:46:57.020Z,4.74
2018-10-03T02:50:57.885Z,4.13
2018-10-03T02:56:58.834Z,3.99
2018-10-03T03:02:59.666Z,4.85
2018-10-03T03:07:06.194Z,4.7
2018-10-03T03:13:07.137Z,6.55
2018-10-03T03:17:08.079Z,4.48
2018-10-03T03:23:08.917Z,5.8
2018-10-03T03:29:09.643Z,4.03
2018-10-03T03:33:10.500Z,3.38
2018-10-03T03:39:11.293Z,3.31
2018-10-03T03:43:12.128Z,2.93
2018-10-03T03:49:12.862Z,3.23
2018-10-03T03:55:13.693Z,3.41
2018-10-03T03:59:14.390Z,2.87
2018-10-03T04:05:15.236Z,4.89
2018-10-03T04:09:16.038Z,4.61
2018-10-03T04:15:17.133Z,3.95
2018-10-03T04:21:17.937Z,4.81
2018-10-03T04:21:17.966Z,4.81
2018-10-03T04:25:18.645Z,4.35
2018-10-03T04:31:19.496Z,4.16
2018-10-03T04:35:20.239Z,4.21
2018-10-03T04:41:20.992Z,3.58
2018-10-03T04:47:21.807Z,4.88
2018-10-03T04:51:22.690Z,4.02
2018-10-03T04:57:23.563Z,5.08
2018-10-03T05:01:24.308Z,6.5
2018-10-03T05:07:24.995Z,5.21
2018-10-03T05:13:25.771Z,4.83
2018-10-03T05:17:26.500Z,4.13
2018-10-03T05:23:27.291Z,4.11
2018-10-03T05:27:28.148Z,4.55
2018-10-03T05:33:28.901Z,4.07
2018-10-03T05:39:29.639Z,5.02
2018-10-03T05:43:30.417Z,3.75
2018-10-03T05:49:31.157Z,6.22
2018-10-03T05:53:31.958Z,4.7
2018-10-03T05:55:32.704Z,5.06
2018-10-03T05:59:33.481Z,4.62
2018-10-03T06:05:34.388Z,4.22
2018-10-03T06:09:35.233Z,6.36
2018-10-03T06:15:36.204Z,4.71
2018-10-03T06:19:37.040Z,4.11
2018-10-03T06:21:37.752Z,4.06
2018-10-03T06:25:38.483Z,4.54
2018-10-03T06:31:39.302Z,6.72
2018-10-03T06:35:40.161Z,6.02
2018-10-03T06:41:40.883Z,6.14
2018-10-03T06:45:41.774Z,6.25
2018-10-03T06:47:42.813Z,9.94
2018-10-03T06:51:43.689Z,9.68
2018-10-03T06:57:44.450Z,10.09
2018-10-03T07:01:45.423Z,8.57
2018-10-03T07:07:46.511Z,10.53
2018-10-03T07:11:47.236Z,9.22
2018-10-03T07:13:48.033Z,11.11
2018-10-03T07:17:48.834Z,9.15
2018-10-03T07:23:49.568Z,13.61
2018-10-03T07:27:50.412Z,13.67
2018-10-03T07:33:51.093Z,13.24
2018-10-03T07:37:51.926Z,12.14
2018-10-03T07:39:52.852Z,11.08
2018-10-03T07:43:53.556Z,11.98
2018-10-03T07:49:54.370Z,10.59
2018-10-03T07:54:05.759Z,10.9
2018-10-03T08:04:20.324Z,9.52
2018-10-03T08:04:20.789Z,11.75
2018-10-03T08:10:24.630Z,9.3
2018-10-03T08:20:40.877Z,10.67
2018-10-03T08:20:41.046Z,9.24
2018-10-03T08:24:45.670Z,10.32
2018-10-03T08:26:47.646Z,9.42
2018-10-03T08:30:48.367Z,8.8
2018-10-03T08:36:49.180Z,9.59
2018-10-03T08:40:49.899Z,9.95
2018-10-03T08:46:52.539Z,9.77
2018-10-03T08:57:03.682Z,6.19
2018-10-03T08:57:03.955Z,8.03
2018-10-03T09:03:12.918Z,5.28
2018-10-03T09:07:17.989Z,6.63
2018-10-03T09:13:19.431Z,5.82
2018-10-03T09:23:24.210Z,4.07
2018-10-03T09:23:24.445Z,5.3
2018-10-03T09:27:25.401Z,3.77
2018-10-03T09:29:26.355Z,4.61
2018-10-03T09:33:27.288Z,4.04
2018-10-03T09:39:28.129Z,5.92
2018-10-03T09:43:28.826Z,4.72
2018-10-03T09:49:29.806Z,6.94
2018-10-03T09:53:30.804Z,7.53
2018-10-03T09:55:31.608Z,6.21
2018-10-03T09:59:32.289Z,5.27
2018-10-03T10:05:33.196Z,4.58
2018-10-03T10:09:34.121Z,5.06
2018-10-03T10:15:34.972Z,6.48
2018-10-03T10:19:35.761Z,5.41
2018-10-03T10:21:36.553Z,5.23
2018-10-03T10:25:37.317Z,4.39
2018-10-03T10:31:38.325Z,6.82
2018-10-03T10:35:38.968Z,5.63
2018-10-03T10:41:39.855Z,5.28
2018-10-03T10:45:40.586Z,4.82
2018-10-03T10:47:41.238Z,5.01
2018-10-03T10:51:42.052Z,4.23
2018-10-03T10:57:43.849Z,4.25
2018-10-03T11:01:45.425Z,4.24
2018-10-03T11:07:46.425Z,6.63
2018-10-03T11:11:47.183Z,4.84
2018-10-03T11:13:48.005Z,4.35
2018-10-03T11:17:48.877Z,4.19
2018-10-03T11:23:54.905Z,3.81
2018-10-03T11:27:57.045Z,2.91
2018-10-03T11:33:58.672Z,1.96
2018-10-03T11:38:01.149Z,2.44
2018-10-03T11:44:02.404Z,1.36
2018-10-03T11:50:06.842Z,1.54
2018-10-03T11:54:07.992Z,1.77
2018-10-03T12:00:08.890Z,1.9
2018-10-03T12:04:10.245Z,1.55
2018-10-03T12:10:11.017Z,2.31
2018-10-03T12:16:11.914Z,1.61
2018-10-03T12:20:12.810Z,2.26
2018-10-03T12:26:13.635Z,1.19
2018-10-03T12:30:14.448Z,1.14
2018-10-03T12:36:15.314Z,1.55
2018-10-03T12:42:15.969Z,1.63
2018-10-03T12:46:16.924Z,1.51
2018-10-03T12:52:18.037Z,2.55
2018-10-03T12:56:18.829Z,2.55
2018-10-03T13:02:19.911Z,2.96
2018-10-03T13:08:20.745Z,1.45
2018-10-03T13:12:21.480Z,1.17
2018-10-03T13:18:22.275Z,1.79
2018-10-03T13:22:23.158Z,2.28
2018-10-03T13:28:24.045Z,1.31
2018-10-03T13:34:24.859Z,2.72
2018-10-03T13:38:25.540Z,1.44
2018-10-03T13:44:26.597Z,2.71
2018-10-03T13:48:27.304Z,1.86
2018-10-03T13:54:28.041Z,1.44
2018-10-03T14:00:29.213Z,1.77
2018-10-03T14:04:30.064Z,1.64
2018-10-03T14:10:30.711Z,1.31
2018-10-03T14:14:31.473Z,1.49
2018-10-03T14:16:32.206Z,1.67
2018-10-03T14:20:33.086Z,2.62
2018-10-03T14:26:33.955Z,2.09
2018-10-03T14:30:35.330Z,1.8
2018-10-03T14:36:36.041Z,1.55
2018-10-03T14:40:36.883Z,2.78
2018-10-03T14:42:37.668Z,1.74
2018-10-03T14:46:38.508Z,1.38
2018-10-03T14:52:39.282Z,3.3
2018-10-03T14:56:39.913Z,2.41
2018-10-03T15:02:40.795Z,6.56
2018-10-03T15:06:41.589Z,1.41
2018-10-03T15:08:42.522Z,1.93
2018-10-03T15:12:43.360Z,2.27
2018-10-03T15:18:44.180Z,2.27
2018-10-03T15:22:45.161Z,1.94
2018-10-03T15:28:45.849Z,2.06
2018-10-03T15:32:46.795Z,1.71
2018-10-03T15:34:47.528Z,2.13
2018-10-03T15:38:48.281Z,1.96
2018-10-03T15:44:49.042Z,1.24
2018-10-03T15:48:49.915Z,2.04
2018-10-03T15:54:51.098Z,2.52
2018-10-03T15:58:51.792Z,2.88
2018-10-03T16:00:56.311Z,2.22
2018-10-03T16:04:57.320Z,1.95
2018-10-03T16:10:58.103Z,3.99
2018-10-03T16:14:58.946Z,2.9
2018-10-03T16:20:59.631Z,4.4
2018-10-03T16:25:00.685Z,2.36
2018-10-03T16:27:01.401Z,2.46
2018-10-03T16:31:02.101Z,1.79
2018-10-03T16:37:02.871Z,2.29
2018-10-03T16:41:03.784Z,3.49
2018-10-03T16:47:04.982Z,4.73
2018-10-03T16:51:05.707Z,3.13
2018-10-03T16:53:06.533Z,3.25
